Time;durP1;ratioP1;P1;durP2;ratioP2;P2;SDS_P1;SDS_P2;PMS_P1;PMS_P2;Temp;Humidity;BMP_temperature;BMP_pressure;BME280_temperature;BME280_humidity;BME280_pressure;Samples;Min_cycle;Max_cycle;Signal;HPM_P1;HPM_P2
2021/12/28 00:00:33;;;;;;;21.50;4.83;;;12.20;99.90;;;;;;4978213;28;20203;-22
2021/12/28 00:03:01;;;;;;;27.37;5.40;;;12.20;99.90;;;;;;4972340;28;20597;-22
2021/12/28 00:05:28;;;;;;;26.17;5.30;;;12.20;99.90;;;;;;4987328;28;20195;-22
2021/12/28 00:07:56;;;;;;;29.07;5.27;;;12.20;99.90;;;;;;4976089;28;20211;-22
2021/12/28 00:10:25;;;;;;;19.57;4.93;;;12.20;99.90;;;;;;4974602;28;20198;-22
2021/12/28 00:12:55;;;;;;;24.03;5.97;;;12.30;99.90;;;;;;4990950;28;20210;-22
2021/12/28 00:18:01;;;;;;;23.10;4.93;;;12.30;99.90;;;;;;4999991;28;20608;-22
2021/12/28 00:20:29;;;;;;;26.63;5.40;;;12.30;99.90;;;;;;4989652;28;20211;-22
2021/12/28 00:23:00;;;;;;;21.20;4.83;;;12.30;99.90;;;;;;4971909;28;20577;-22
2021/12/28 00:25:29;;;;;;;21.77;4.40;;;12.40;99.90;;;;;;4985564;28;20211;-22
2021/12/28 00:27:57;;;;;;;25.80;5.23;;;12.40;99.90;;;;;;4978234;28;20199;-24
2021/12/28 00:30:24;;;;;;;28.40;5.77;;;12.40;99.90;;;;;;4991343;28;20256;-23
2021/12/28 00:32:53;;;;;;;26.57;6.00;;;12.40;99.90;;;;;;4986225;28;20218;-24
2021/12/28 00:35:23;;;;;;;22.67;4.87;;;12.50;99.90;;;;;;4980076;28;20629;-24
2021/12/28 00:37:51;;;;;;;27.47;5.47;;;12.50;99.90;;;;;;4990042;28;20206;-24
2021/12/28 00:40:19;;;;;;;22.53;4.60;;;12.50;99.90;;;;;;4978114;28;20252;-24
2021/12/28 00:42:46;;;;;;;27.33;6.83;;;12.50;99.90;;;;;;4980532;28;20822;-23
2021/12/28 00:45:16;;;;;;;23.97;5.03;;;12.50;99.90;;;;;;4977078;28;20195;-24
2021/12/28 00:47:44;;;;;;;24.07;5.07;;;12.50;99.90;;;;;;4988377;28;20206;-24
2021/12/28 00:50:14;;;;;;;22.00;4.93;;;12.50;99.90;;;;;;4990646;28;20309;-24
2021/12/28 00:52:42;;;;;;;22.13;4.70;;;12.60;99.90;;;;;;4981881;28;20544;-24
2021/12/28 00:55:11;;;;;;;25.63;5.60;;;12.60;99.90;;;;;;4984203;28;20199;-24
2021/12/28 00:57:38;;;;;;;24.40;5.33;;;12.60;99.90;;;;;;4989503;28;20527;-23
2021/12/28 01:00:10;;;;;;;22.67;5.47;;;12.60;99.90;;;;;;4981916;28;20712;-24
2021/12/28 01:02:37;;;;;;;22.20;4.67;;;12.60;99.90;;;;;;4982028;28;20239;-23
2021/12/28 01:05:06;;;;;;;21.70;5.03;;;12.60;99.90;;;;;;4973569;28;20199;-24
2021/12/28 01:07:33;;;;;;;21.40;5.17;;;12.70;99.90;;;;;;4988932;28;20217;-24
2021/12/28 01:10:05;;;;;;;21.80;4.87;;;12.70;99.90;;;;;;4983171;28;20660;-24
2021/12/28 01:12:35;;;;;;;21.00;5.20;;;12.70;99.90;;;;;;4968764;28;20585;-23
2021/12/28 01:15:09;;;;;;;21.20;5.03;;;12.70;99.90;;;;;;4972534;28;20293;-26
2021/12/28 01:17:37;;;;;;;21.47;4.37;;;12.70;99.90;;;;;;4974375;28;20206;-26
2021/12/28 01:20:07;;;;;;;21.83;5.40;;;12.70;99.90;;;;;;4981537;28;20229;-26
2021/12/28 01:22:34;;;;;;;19.97;4.37;;;12.70;99.90;;;;;;4987563;28;20249;-26
2021/12/28 01:25:04;;;;;;;18.07;4.60;;;12.70;99.90;;;;;;4987542;28;20202;-26
2021/12/28 01:27:33;;;;;;;17.53;3.80;;;12.70;99.90;;;;;;4986227;28;20689;-26
2021/12/28 01:30:01;;;;;;;17.10;4.13;;;12.80;99.90;;;;;;4989051;28;20202;-26
2021/12/28 01:32:28;;;;;;;20.93;4.40;;;12.80;99.90;;;;;;4974543;28;20685;-26
2021/12/28 01:35:16;;;;;;;20.93;4.97;;;12.80;99.90;;;;;;4993101;28;20260;-26
2021/12/28 01:37:43;;;;;;;17.13;4.23;;;12.80;99.90;;;;;;4987258;28;20217;-25
2021/12/28 01:40:16;;;;;;;18.13;4.30;;;12.70;99.90;;;;;;4970359;28;20266;-26
2021/12/28 01:43:00;;;;;;;14.50;3.43;;;12.80;99.90;;;;;;4979867;28;20325;-26
2021/12/28 01:45:49;;;;;;;22.90;3.73;;;12.80;99.90;;;;;;4985004;28;20207;-26
2021/12/28 01:48:21;;;;;;;20.20;4.20;;;12.80;99.90;;;;;;4970724;28;20286;-26
2021/12/28 01:50:56;;;;;;;15.37;3.33;;;12.80;99.90;;;;;;4989921;28;20345;-26
2021/12/28 01:53:27;;;;;;;13.43;4.10;;;12.80;99.90;;;;;;4984062;28;20313;-26
2021/12/28 01:55:57;;;;;;;17.20;4.00;;;12.80;99.90;;;;;;4985808;28;20202;-26
2021/12/28 01:58:24;;;;;;;17.33;4.20;;;12.70;99.90;;;;;;4971999;28;20209;-26
2021/12/28 02:00:54;;;;;;;18.47;3.90;;;12.80;99.90;;;;;;4980664;28;20208;-26
2021/12/28 02:03:23;;;;;;;19.93;3.70;;;12.80;99.90;;;;;;4979840;28;20233;-26
2021/12/28 02:05:53;;;;;;;14.90;3.63;;;12.80;99.90;;;;;;4977484;28;20203;-26
2021/12/28 02:08:21;;;;;;;13.70;3.57;;;12.80;99.90;;;;;;4984723;28;20519;-26
2021/12/28 02:10:55;;;;;;;13.57;3.60;;;12.80;99.90;;;;;;4981202;28;20253;-26
2021/12/28 02:13:24;;;;;;;16.60;4.00;;;12.80;99.90;;;;;;4979363;28;20207;-26
2021/12/28 02:15:56;;;;;;;16.23;3.97;;;12.80;99.90;;;;;;4974545;28;20686;-26
2021/12/28 02:18:26;;;;;;;15.83;3.70;;;12.80;99.90;;;;;;4971626;28;20206;-26
2021/12/28 02:20:54;;;;;;;16.20;3.80;;;12.80;99.90;;;;;;4983781;28;20897;-26
2021/12/28 02:23:23;;;;;;;13.90;3.33;;;12.70;99.90;;;;;;4984228;28;20224;-26
2021/12/28 02:25:53;;;;;;;16.37;3.37;;;12.70;99.90;;;;;;4980330;28;20609;-26
2021/12/28 02:28:23;;;;;;;13.03;3.40;;;12.70;99.90;;;;;;4977229;28;20345;-25
2021/12/28 02:30:56;;;;;;;19.17;3.57;;;12.70;99.90;;;;;;4982334;28;20199;-26
2021/12/28 02:33:26;;;;;;;18.57;3.57;;;12.70;99.90;;;;;;4971878;28;20234;-26
2021/12/28 02:35:58;;;;;;;10.90;3.10;;;12.70;99.90;;;;;;4972912;28;20210;-26
2021/12/28 02:38:26;;;;;;;12.27;3.20;;;12.70;99.90;;;;;;4977081;28;20308;-26
2021/12/28 02:40:54;;;;;;;13.43;3.13;;;12.70;99.90;;;;;;4970958;28;20210;-26
2021/12/28 02:43:21;;;;;;;15.80;3.50;;;12.70;99.90;;;;;;4980174;28;21001;-26
2021/12/28 02:45:57;;;;;;;12.63;2.67;;;12.70;99.90;;;;;;4969677;28;20203;-26
2021/12/28 02:48:26;;;;;;;14.60;2.83;;;12.70;99.90;;;;;;4972112;28;20785;-26
2021/12/28 02:51:03;;;;;;;11.53;3.37;;;12.70;99.90;;;;;;4984347;28;20257;-26
2021/12/28 02:53:30;;;;;;;12.80;3.13;;;12.70;99.90;;;;;;4979059;28;20255;-26
2021/12/28 02:55:58;;;;;;;10.97;2.73;;;12.70;99.90;;;;;;4968685;28;20253;-25
2021/12/28 02:58:25;;;;;;;11.13;2.70;;;12.70;99.90;;;;;;4968942;28;20261;-25
2021/12/28 03:01:15;;;;;;;9.10;2.50;;;12.70;99.90;;;;;;4982168;28;20246;-25
2021/12/28 03:03:44;;;;;;;17.10;3.27;;;12.70;99.90;;;;;;5002332;28;20257;-25
2021/12/28 03:06:14;;;;;;;12.27;2.77;;;12.70;99.90;;;;;;4979565;28;20288;-25
2021/12/28 03:08:44;;;;;;;9.33;2.70;;;12.70;99.90;;;;;;4988041;28;20564;-25
2021/12/28 03:11:13;;;;;;;8.83;2.30;;;12.70;99.90;;;;;;4986197;28;20238;-25
2021/12/28 03:13:48;;;;;;;8.10;1.93;;;12.70;99.90;;;;;;4969134;28;20242;-25
2021/12/28 03:16:19;;;;;;;7.70;2.07;;;12.70;99.90;;;;;;4970499;28;20202;-25
2021/12/28 03:18:49;;;;;;;11.10;2.67;;;12.70;99.90;;;;;;4986594;28;20221;-24
2021/12/28 03:21:21;;;;;;;10.40;2.50;;;12.80;99.90;;;;;;4982574;28;20689;-24
2021/12/28 03:23:52;;;;;;;9.63;2.40;;;12.80;99.90;;;;;;4967574;28;20226;-24
2021/12/28 03:26:19;;;;;;;8.60;1.80;;;12.70;99.90;;;;;;4971916;28;20282;-25
2021/12/28 03:28:47;;;;;;;10.63;2.37;;;12.80;99.90;;;;;;4971100;28;20445;-24
2021/12/28 03:31:17;;;;;;;7.73;1.90;;;12.80;99.90;;;;;;4969002;28;20309;-24
2021/12/28 03:33:50;;;;;;;5.30;1.67;;;12.70;99.90;;;;;;4970281;28;20203;-24
2021/12/28 03:36:19;;;;;;;9.63;2.07;;;12.80;99.90;;;;;;4984742;28;20767;-24
2021/12/28 03:38:47;;;;;;;9.10;1.83;;;12.70;99.90;;;;;;4986721;28;20333;-25
2021/12/28 03:41:16;;;;;;;9.33;2.63;;;12.70;99.90;;;;;;4977495;28;20212;-24
2021/12/28 03:43:48;;;;;;;7.27;2.07;;;12.70;99.90;;;;;;4986583;28;20230;-24
2021/12/28 03:46:16;;;;;;;7.47;1.83;;;12.70;99.90;;;;;;4971770;28;20302;-24
2021/12/28 03:48:47;;;;;;;10.53;2.00;;;12.70;99.90;;;;;;4972392;28;22215;-24
2021/12/28 03:51:15;;;;;;;8.20;2.77;;;12.70;99.90;;;;;;4969094;28;20207;-24
2021/12/28 03:53:46;;;;;;;7.43;2.00;;;12.70;99.90;;;;;;4971625;28;20238;-24
2021/12/28 03:56:14;;;;;;;5.93;1.83;;;12.70;99.90;;;;;;4973636;28;20298;-24
2021/12/28 03:58:48;;;;;;;6.87;1.70;;;12.70;99.90;;;;;;4975274;28;20230;-24
2021/12/28 04:01:19;;;;;;;5.23;1.47;;;12.70;99.90;;;;;;4972603;28;20213;-24
2021/12/28 04:03:47;;;;;;;8.53;1.80;;;12.70;99.90;;;;;;4985582;28;20238;-25
2021/12/28 04:06:20;;;;;;;9.67;1.90;;;12.70;99.90;;;;;;4973184;28;20242;-24
2021/12/28 04:08:48;;;;;;;9.53;1.73;;;12.70;99.90;;;;;;4979177;28;20211;-24
2021/12/28 04:11:34;;;;;;;6.67;1.97;;;12.70;99.90;;;;;;4969442;28;20205;-24
2021/12/28 04:14:07;;;;;;;4.80;1.50;;;12.70;99.90;;;;;;4971263;28;20207;-24
2021/12/28 04:16:35;;;;;;;5.37;1.60;;;12.70;99.90;;;;;;4977126;28;20214;-24
2021/12/28 04:19:07;;;;;;;5.77;1.53;;;12.70;99.90;;;;;;4975939;28;20298;-24
2021/12/28 04:21:35;;;;;;;5.83;1.47;;;12.70;99.90;;;;;;4975797;28;20293;-24
2021/12/28 04:24:05;;;;;;;5.03;1.40;;;12.70;99.90;;;;;;4972020;28;20219;-24
2021/12/28 04:26:33;;;;;;;6.93;1.40;;;12.70;99.90;;;;;;4971542;28;20582;-23
2021/12/28 04:29:02;;;;;;;5.03;1.30;;;12.70;99.90;;;;;;4972176;28;20211;-23
2021/12/28 04:31:29;;;;;;;6.90;1.20;;;12.70;99.90;;;;;;4973926;28;20590;-23
2021/12/28 04:33:59;;;;;;;5.20;1.00;;;12.70;99.90;;;;;;4982219;28;20610;-22
2021/12/28 04:36:28;;;;;;;3.00;1.30;;;12.70;99.90;;;;;;4985698;28;20207;-23
2021/12/28 04:38:58;;;;;;;3.97;1.23;;;12.70;99.90;;;;;;4983502;28;20721;-22
2021/12/28 04:41:25;;;;;;;4.27;1.23;;;12.70;99.90;;;;;;4985846;28;20511;-22
2021/12/28 04:43:53;;;;;;;3.13;1.10;;;12.70;99.90;;;;;;4971333;28;20321;-22
2021/12/28 04:46:20;;;;;;;2.50;0.90;;;12.70;99.90;;;;;;4989927;28;20679;-23
2021/12/28 04:48:47;;;;;;;5.17;1.20;;;12.70;99.90;;;;;;4976568;28;20779;-22
2021/12/28 04:51:17;;;;;;;3.87;1.40;;;12.70;99.90;;;;;;4971148;28;20689;-23
2021/12/28 04:53:48;;;;;;;6.23;1.37;;;12.70;99.90;;;;;;4971074;28;20215;-23
2021/12/28 04:56:18;;;;;;;5.27;0.83;;;12.70;99.90;;;;;;4973376;28;20195;-22
2021/12/28 04:58:45;;;;;;;3.27;0.87;;;12.70;99.90;;;;;;4971767;28;20231;-22
2021/12/28 05:01:12;;;;;;;5.33;1.23;;;12.70;99.90;;;;;;4971279;28;20214;-22
2021/12/28 05:03:40;;;;;;;4.23;1.10;;;12.70;99.90;;;;;;4978262;28;20566;-22
2021/12/28 05:06:09;;;;;;;2.57;0.80;;;12.70;99.90;;;;;;4983866;28;20260;-22
2021/12/28 05:08:40;;;;;;;3.53;1.10;;;12.70;99.90;;;;;;4974259;28;20219;-22
2021/12/28 05:11:07;;;;;;;5.20;1.50;;;12.70;99.90;;;;;;4971260;28;20199;-22
2021/12/28 05:13:34;;;;;;;3.63;1.20;;;12.70;99.90;;;;;;4971689;28;20757;-22
2021/12/28 05:16:01;;;;;;;3.37;1.23;;;12.70;99.90;;;;;;4971404;28;20223;-22
2021/12/28 05:18:29;;;;;;;2.57;0.90;;;12.70;99.90;;;;;;4978996;28;20210;-22
2021/12/28 05:20:58;;;;;;;3.17;0.80;;;12.70;99.90;;;;;;4971865;28;20736;-22
2021/12/28 05:23:25;;;;;;;4.20;1.00;;;12.70;99.90;;;;;;4970394;28;20227;-22
2021/12/28 05:25:57;;;;;;;2.53;1.00;;;12.70;99.90;;;;;;4975685;28;20202;-22
2021/12/28 05:28:27;;;;;;;4.80;1.13;;;12.70;99.90;;;;;;4990307;28;20257;-22
2021/12/28 05:30:56;;;;;;;5.27;1.13;;;12.70;99.90;;;;;;4976594;28;20719;-22
2021/12/28 05:33:24;;;;;;;2.83;1.00;;;12.70;99.90;;;;;;4970701;28;20233;-23
2021/12/28 05:35:53;;;;;;;3.93;0.90;;;12.70;99.90;;;;;;4971436;28;20207;-23
2021/12/28 05:38:20;;;;;;;2.67;0.93;;;12.70;99.90;;;;;;4985764;28;20294;-22
2021/12/28 05:40:47;;;;;;;3.00;1.07;;;12.70;99.90;;;;;;4970908;28;20214;-22
2021/12/28 05:43:19;;;;;;;3.90;1.80;;;12.70;99.90;;;;;;4979438;28;20218;-22
2021/12/28 05:45:47;;;;;;;3.60;1.37;;;12.70;99.90;;;;;;4989476;28;20214;-22
2021/12/28 05:48:14;;;;;;;3.63;0.97;;;12.70;99.90;;;;;;4981974;28;20210;-22
2021/12/28 05:50:41;;;;;;;3.37;1.10;;;12.70;99.90;;;;;;4971414;28;20598;-22
2021/12/28 05:53:08;;;;;;;1.87;0.80;;;12.70;99.90;;;;;;4970766;28;20227;-22
2021/12/28 05:55:38;;;;;;;3.90;0.93;;;12.70;99.90;;;;;;4985144;28;20269;-22
2021/12/28 05:58:05;;;;;;;3.03;1.20;;;12.70;99.90;;;;;;4976823;28;20257;-22
2021/12/28 06:00:33;;;;;;;3.07;1.17;;;12.70;99.90;;;;;;4985988;28;20205;-23
2021/12/28 06:03:00;;;;;;;4.27;1.40;;;12.70;99.90;;;;;;4985245;28;20666;-22
2021/12/28 06:05:28;;;;;;;2.13;0.90;;;12.70;99.90;;;;;;4981906;28;20207;-22
2021/12/28 06:07:57;;;;;;;2.37;1.07;;;12.70;99.90;;;;;;4983660;28;20254;-23
2021/12/28 06:10:25;;;;;;;3.53;1.00;;;12.70;99.90;;;;;;4987683;28;20194;-22
2021/12/28 06:12:52;;;;;;;3.97;1.13;;;12.70;99.90;;;;;;4981225;28;20210;-22
2021/12/28 06:15:19;;;;;;;3.00;1.03;;;12.80;99.90;;;;;;4970695;28;20203;-22
2021/12/28 06:17:51;;;;;;;2.77;1.10;;;12.70;99.90;;;;;;4971901;28;20219;-22
2021/12/28 06:20:18;;;;;;;1.77;0.90;;;12.70;99.90;;;;;;4980653;28;20235;-22
2021/12/28 06:22:48;;;;;;;2.97;1.00;;;12.80;99.90;;;;;;4978910;28;20206;-22
2021/12/28 06:25:18;;;;;;;2.20;1.17;;;12.80;99.90;;;;;;4976507;28;20724;-22
2021/12/28 06:27:45;;;;;;;4.60;0.90;;;12.80;99.90;;;;;;4971419;28;20630;-23
2021/12/28 06:30:12;;;;;;;1.87;0.93;;;12.80;99.90;;;;;;4980673;28;20561;-22
2021/12/28 06:32:40;;;;;;;2.23;1.10;;;12.80;99.90;;;;;;4986457;28;20720;-22
2021/12/28 06:35:17;;;;;;;3.77;1.10;;;12.80;99.90;;;;;;4969874;28;20466;-22
2021/12/28 06:37:44;;;;;;;2.63;1.00;;;12.80;99.90;;;;;;4979773;28;20238;-22
2021/12/28 06:40:14;;;;;;;2.23;1.23;;;12.80;99.90;;;;;;4985488;28;20213;-22
2021/12/28 06:42:45;;;;;;;2.00;1.00;;;12.80;99.90;;;;;;4974722;28;20249;-22
2021/12/28 06:45:15;;;;;;;2.63;1.10;;;12.80;99.90;;;;;;4970050;28;20681;-22
2021/12/28 06:47:43;;;;;;;1.53;0.80;;;12.80;99.90;;;;;;4970304;28;20199;-22
2021/12/28 06:50:10;;;;;;;2.47;1.10;;;12.80;99.90;;;;;;4985694;28;20202;-22
2021/12/28 06:52:38;;;;;;;3.03;0.87;;;12.80;99.90;;;;;;4975942;28;20701;-27
2021/12/28 06:55:07;;;;;;;2.67;1.10;;;12.80;99.90;;;;;;4974187;28;20214;-22
2021/12/28 06:57:37;;;;;;;2.60;1.10;;;12.80;99.90;;;;;;4969855;28;20859;-22
2021/12/28 07:00:08;;;;;;;1.93;0.73;;;12.80;99.90;;;;;;4969518;28;20207;-22
2021/12/28 07:02:40;;;;;;;2.97;0.90;;;12.80;99.90;;;;;;4969747;28;20298;-22
2021/12/28 07:05:09;;;;;;;2.50;1.03;;;12.80;99.90;;;;;;4973087;28;20218;-22
2021/12/28 07:07:39;;;;;;;2.97;1.10;;;12.80;99.90;;;;;;4971813;28;20616;-22
2021/12/28 07:10:09;;;;;;;2.80;0.80;;;12.80;99.90;;;;;;4970375;28;20217;-22
2021/12/28 07:12:36;;;;;;;2.27;1.00;;;12.80;99.90;;;;;;4974646;28;20202;-22
2021/12/28 07:15:06;;;;;;;1.57;0.90;;;12.90;99.90;;;;;;4982879;28;20221;-23
2021/12/28 07:17:34;;;;;;;2.27;0.80;;;12.90;99.90;;;;;;4975440;28;20293;-22
2021/12/28 07:20:09;;;;;;;1.67;0.73;;;12.80;99.90;;;;;;4973634;28;20673;-22
2021/12/28 07:22:37;;;;;;;1.37;0.80;;;12.80;99.90;;;;;;4982399;28;20214;-23
2021/12/28 07:25:06;;;;;;;2.60;1.00;;;12.80;99.90;;;;;;4985446;28;20222;-23
2021/12/28 07:27:36;;;;;;;2.10;1.03;;;12.90;99.90;;;;;;4983473;28;20222;-23
2021/12/28 07:30:08;;;;;;;1.73;0.90;;;12.90;99.90;;;;;;4980102;28;20232;-22
2021/12/28 07:32:38;;;;;;;3.20;0.93;;;12.90;99.90;;;;;;4988832;28;20253;-22
2021/12/28 07:35:07;;;;;;;2.13;0.80;;;12.90;99.90;;;;;;4974692;28;20211;-22
2021/12/28 07:37:37;;;;;;;1.87;0.83;;;12.90;99.90;;;;;;4968926;28;20202;-22
2021/12/28 07:40:06;;;;;;;1.43;0.80;;;12.90;99.90;;;;;;4969267;28;20233;-22
2021/12/28 07:42:35;;;;;;;2.00;0.90;;;12.90;99.90;;;;;;4983415;28;20681;-22
2021/12/28 07:45:10;;;;;;;2.17;0.90;;;12.90;99.90;;;;;;4970975;28;20238;-22
2021/12/28 07:47:38;;;;;;;1.60;0.80;;;12.90;99.90;;;;;;4986165;28;20195;-22
2021/12/28 07:50:08;;;;;;;1.60;1.07;;;12.90;99.90;;;;;;4992160;28;20294;-22
2021/12/28 07:52:36;;;;;;;1.77;0.70;;;12.90;99.90;;;;;;4989962;28;20614;-22
2021/12/28 07:55:06;;;;;;;2.40;0.90;;;12.90;99.90;;;;;;4972392;28;20613;-25
2021/12/28 07:57:34;;;;;;;1.97;1.00;;;12.90;99.90;;;;;;4986462;28;20779;-22
2021/12/28 08:00:09;;;;;;;1.27;0.80;;;12.90;99.90;;;;;;4981902;28;20198;-22
2021/12/28 08:02:36;;;;;;;1.23;0.70;;;12.90;99.90;;;;;;4990704;28;20265;-22
2021/12/28 08:05:06;;;;;;;2.90;0.80;;;12.90;99.90;;;;;;4976977;28;20576;-23
2021/12/28 08:07:35;;;;;;;1.77;1.10;;;12.90;99.90;;;;;;4973331;28;20238;-23
2021/12/28 08:10:04;;;;;;;1.00;0.70;;;12.90;99.90;;;;;;4972189;28;20739;-24
2021/12/28 08:12:36;;;;;;;2.87;1.17;;;12.90;99.90;;;;;;4971282;28;20214;-24
2021/12/28 08:15:07;;;;;;;1.40;0.80;;;12.90;99.90;;;;;;4972561;28;20482;-24
2021/12/28 08:17:36;;;;;;;1.60;0.70;;;12.90;99.90;;;;;;4971970;28;20207;-24
2021/12/28 08:20:09;;;;;;;1.50;0.63;;;12.90;99.90;;;;;;4979044;28;20277;-24
2021/12/28 08:22:38;;;;;;;1.73;0.93;;;12.90;99.90;;;;;;4972936;28;20704;-24
2021/12/28 08:25:07;;;;;;;2.87;0.80;;;13.00;99.90;;;;;;4970821;28;20701;-24
2021/12/28 08:27:34;;;;;;;1.83;1.10;;;13.00;99.90;;;;;;4980608;28;20199;-24
2021/12/28 08:30:03;;;;;;;2.87;0.63;;;13.00;99.90;;;;;;4982224;28;20213;-24
2021/12/28 08:32:39;;;;;;;1.00;0.70;;;12.90;99.90;;;;;;4980631;28;20203;-24
2021/12/28 08:35:10;;;;;;;1.63;0.80;;;13.00;99.90;;;;;;4977049;28;20230;-24
2021/12/28 08:37:38;;;;;;;2.43;0.60;;;13.00;99.90;;;;;;4981179;28;20660;-24
2021/12/28 08:40:08;;;;;;;1.10;0.60;;;13.00;99.90;;;;;;4989452;28;20214;-24
2021/12/28 08:42:35;;;;;;;1.87;0.50;;;13.00;99.90;;;;;;4979999;28;20215;-24
2021/12/28 08:45:04;;;;;;;1.30;0.70;;;13.00;99.90;;;;;;4980231;28;20970;-24
2021/12/28 08:47:32;;;;;;;2.30;0.73;;;13.00;99.90;;;;;;4990271;28;20221;-24
2021/12/28 08:49:59;;;;;;;1.43;0.70;;;13.00;99.90;;;;;;4987247;28;20231;-24
2021/12/28 08:52:27;;;;;;;0.57;0.50;;;13.00;99.90;;;;;;4979972;28;20309;-24
2021/12/28 08:54:54;;;;;;;1.13;0.53;;;13.10;99.90;;;;;;4971917;28;20632;-24
2021/12/28 08:57:22;;;;;;;1.23;0.60;;;13.10;99.90;;;;;;4982748;28;20286;-24
2021/12/28 08:59:49;;;;;;;0.67;0.47;;;13.10;99.90;;;;;;4990345;28;20214;-24
2021/12/28 09:02:18;;;;;;;0.60;0.60;;;13.10;99.90;;;;;;4989219;28;20214;-24
2021/12/28 09:04:48;;;;;;;0.90;0.60;;;13.10;99.90;;;;;;4971773;28;20347;-24
2021/12/28 09:07:17;;;;;;;1.53;0.80;;;13.10;99.90;;;;;;4984045;28;20207;-24
2021/12/28 09:09:45;;;;;;;1.70;1.33;;;13.10;99.90;;;;;;4971531;28;20654;-24
2021/12/28 09:12:14;;;;;;;0.70;0.70;;;13.10;99.90;;;;;;4978717;28;20253;-24
2021/12/28 09:14:42;;;;;;;1.43;0.60;;;13.10;99.90;;;;;;4990795;28;20296;-24
2021/12/28 09:17:14;;;;;;;1.30;0.70;;;13.10;99.90;;;;;;4974525;28;20207;-25
2021/12/28 09:19:41;;;;;;;1.27;0.70;;;13.10;99.90;;;;;;4996309;28;20583;-24
2021/12/28 09:22:11;;;;;;;0.63;0.63;;;13.10;99.90;;;;;;4971172;28;20203;-24
2021/12/28 09:24:40;;;;;;;0.50;0.40;;;13.10;99.90;;;;;;4970481;28;20312;-24
2021/12/28 09:27:14;;;;;;;1.17;0.80;;;13.10;99.90;;;;;;4974924;28;20198;-24
2021/12/28 09:29:43;;;;;;;0.80;0.60;;;13.10;99.90;;;;;;4978929;28;20733;-24
2021/12/28 09:32:17;;;;;;;0.87;0.70;;;13.20;99.90;;;;;;4970936;28;20199;-24
2021/12/28 09:34:52;;;;;;;2.13;0.80;;;13.20;99.90;;;;;;4970829;28;20294;-24
2021/12/28 09:37:22;;;;;;;0.77;0.60;;;13.20;99.90;;;;;;4970956;28;20627;-24
2021/12/28 09:39:49;;;;;;;1.33;0.67;;;13.30;99.90;;;;;;4970342;28;20293;-24
2021/12/28 09:42:18;;;;;;;1.17;0.77;;;13.30;99.90;;;;;;4970639;28;20207;-24
2021/12/28 09:44:49;;;;;;;0.97;0.80;;;13.30;99.90;;;;;;4967954;28;20239;-24
2021/12/28 09:47:20;;;;;;;1.57;1.10;;;13.30;99.90;;;;;;4973989;28;20221;-24
2021/12/28 09:49:51;;;;;;;1.57;1.20;;;13.40;99.90;;;;;;4973995;28;20207;-24
2021/12/28 09:52:20;;;;;;;1.30;1.20;;;13.40;99.90;;;;;;4970820;28;20273;-24
2021/12/28 09:54:48;;;;;;;1.37;1.20;;;13.40;99.90;;;;;;4979715;28;20230;-24
2021/12/28 09:57:17;;;;;;;1.60;1.47;;;13.40;99.90;;;;;;4970754;28;20289;-24
2021/12/28 09:59:46;;;;;;;2.57;1.30;;;13.40;99.90;;;;;;4970687;28;20217;-24
2021/12/28 10:02:17;;;;;;;3.13;1.30;;;13.40;99.90;;;;;;4971112;28;20230;-25
2021/12/28 10:05:04;;;;;;;1.90;1.40;;;13.50;99.90;;;;;;4970444;28;20218;-24
2021/12/28 10:07:36;;;;;;;1.63;1.23;;;13.50;99.90;;;;;;4969885;28;20195;-24
2021/12/28 10:10:08;;;;;;;1.20;1.10;;;13.50;99.90;;;;;;4972923;28;20623;-24
2021/12/28 10:12:59;;;;;;;2.70;1.00;;;13.50;99.90;;;;;;4976204;28;20199;-24
2021/12/28 10:15:30;;;;;;;1.67;0.73;;;13.50;99.90;;;;;;4972865;28;20202;-24
2021/12/28 10:18:01;;;;;;;1.27;0.70;;;13.50;99.90;;;;;;4983677;28;20215;-24
2021/12/28 10:20:42;;;;;;;1.90;0.73;;;13.50;99.90;;;;;;4980039;28;20232;-24
2021/12/28 10:23:15;;;;;;;1.23;0.60;;;13.50;99.90;;;;;;4987678;28;20673;-22
2021/12/28 10:25:47;;;;;;;0.83;0.50;;;13.50;99.90;;;;;;4987253;28;20293;-22
2021/12/28 10:28:16;;;;;;;0.70;0.47;;;13.60;99.90;;;;;;4980039;28;20229;-22
2021/12/28 10:30:48;;;;;;;1.73;0.47;;;13.60;99.90;;;;;;4987733;28;20225;-23
2021/12/28 10:33:21;;;;;;;0.47;0.27;;;13.60;99.90;;;;;;4988875;28;20202;-23
2021/12/28 10:35:53;;;;;;;0.97;0.40;;;13.60;99.90;;;;;;4984425;28;20217;-23
2021/12/28 10:38:26;;;;;;;1.37;0.30;;;13.60;99.90;;;;;;4987468;28;20289;-22
2021/12/28 10:40:59;;;;;;;2.57;0.40;;;13.60;99.90;;;;;;4970674;28;20261;-23
2021/12/28 10:43:33;;;;;;;5.20;1.20;;;13.60;99.90;;;;;;4969081;28;20238;-22
2021/12/28 10:46:05;;;;;;;9.80;1.67;;;13.60;99.90;;;;;;4982755;28;20317;-22
2021/12/28 10:48:38;;;;;;;9.67;1.80;;;13.50;99.90;;;;;;4969673;28;20277;-23
2021/12/28 10:51:13;;;;;;;10.80;2.67;;;13.50;99.90;;;;;;4976869;28;20238;-23
2021/12/28 10:56:35;;;;;;;22.07;3.40;;;13.40;99.90;;;;;;4970184;28;20771;-23
2021/12/28 10:59:06;;;;;;;19.93;4.10;;;13.40;99.90;;;;;;4969387;28;20190;-23
2021/12/28 11:01:38;;;;;;;15.00;3.33;;;13.40;99.90;;;;;;4979266;28;20213;-23
2021/12/28 11:04:12;;;;;;;22.33;4.40;;;13.40;99.90;;;;;;4973945;28;20222;-23
2021/12/28 11:06:44;;;;;;;18.90;4.23;;;13.30;99.90;;;;;;4970732;28;20195;-23
2021/12/28 11:09:22;;;;;;;23.10;4.40;;;13.30;99.90;;;;;;4968826;28;20198;-23
2021/12/28 11:11:52;;;;;;;24.13;4.47;;;13.30;99.90;;;;;;4968751;28;20819;-23
2021/12/28 11:14:24;;;;;;;20.23;4.67;;;13.20;99.90;;;;;;4977710;28;20565;-23
2021/12/28 11:17:00;;;;;;;23.27;4.50;;;13.10;99.90;;;;;;4978857;28;20203;-23
2021/12/28 11:19:34;;;;;;;25.80;5.03;;;13.10;99.90;;;;;;4977096;28;20267;-22
2021/12/28 11:22:04;;;;;;;26.77;5.17;;;13.20;99.90;;;;;;4988116;28;20214;-23
2021/12/28 11:24:37;;;;;;;22.30;5.40;;;13.10;99.90;;;;;;4991432;28;20292;-23
2021/12/28 11:27:07;;;;;;;25.13;5.50;;;13.10;99.90;;;;;;4989842;28;20202;-23
2021/12/28 11:29:59;;;;;;;26.93;5.53;;;13.10;99.90;;;;;;4987725;28;20222;-23
2021/12/28 11:32:28;;;;;;;21.37;4.67;;;13.10;99.90;;;;;;4975070;28;20611;-23
2021/12/28 11:34:55;;;;;;;21.73;5.00;;;13.10;99.90;;;;;;4975092;28;20300;-23
2021/12/28 11:37:26;;;;;;;24.87;4.60;;;13.20;99.90;;;;;;4978405;28;20206;-24
2021/12/28 11:40:01;;;;;;;30.80;5.43;;;13.10;99.90;;;;;;4975703;28;20225;-23
2021/12/28 11:42:30;;;;;;;22.00;5.10;;;13.10;99.90;;;;;;4992029;28;20685;-23
2021/12/28 11:44:59;;;;;;;25.30;5.57;;;13.10;99.90;;;;;;4980855;28;20226;-23
2021/12/28 11:47:26;;;;;;;29.97;5.63;;;13.10;99.90;;;;;;4981630;28;20544;-23
2021/12/28 11:49:57;;;;;;;32.27;5.83;;;13.10;99.90;;;;;;4991910;28;20195;-23
2021/12/28 11:52:25;;;;;;;25.93;6.30;;;13.10;99.90;;;;;;4975407;28;20245;-23
2021/12/28 11:54:53;;;;;;;28.43;6.60;;;13.10;99.90;;;;;;4974568;28;20202;-23
2021/12/28 11:57:25;;;;;;;30.07;6.50;;;13.10;99.90;;;;;;4979895;28;20718;-23
2021/12/28 12:00:05;;;;;;;35.93;6.93;;;13.00;99.90;;;;;;4982279;28;20689;-23
2021/12/28 12:02:48;;;;;;;29.20;6.70;;;13.00;99.90;;;;;;4983019;28;20218;-23
2021/12/28 12:05:19;;;;;;;26.30;5.60;;;13.00;99.90;;;;;;4991608;28;20271;-24
2021/12/28 12:08:12;;;;;;;34.73;7.63;;;13.00;99.90;;;;;;4973425;28;20199;-24
2021/12/28 12:10:42;;;;;;;34.40;7.03;;;13.00;99.90;;;;;;4973342;28;20205;-24
2021/12/28 12:13:23;;;;;;;30.23;5.80;;;13.00;99.90;;;;;;4972984;28;20225;-24
2021/12/28 12:16:19;;;;;;;36.10;7.17;;;13.00;99.90;;;;;;4979986;28;20214;-24
2021/12/28 12:18:48;;;;;;;29.23;5.87;;;13.00;99.90;;;;;;4989283;28;20579;-24
2021/12/28 12:21:38;;;;;;;33.50;6.40;;;13.00;99.90;;;;;;4976930;28;20301;-24
2021/12/28 12:24:05;;;;;;;35.90;6.97;;;13.00;99.90;;;;;;4975845;28;20203;-24
2021/12/28 12:26:34;;;;;;;31.80;6.80;;;13.00;99.90;;;;;;4989754;28;20859;-24
2021/12/28 12:29:03;;;;;;;30.53;6.93;;;13.00;99.90;;;;;;4974036;28;20285;-24
2021/12/28 12:31:37;;;;;;;27.33;5.53;;;13.00;99.90;;;;;;4979480;28;20681;-24
2021/12/28 12:34:32;;;;;;;28.77;5.97;;;13.00;99.90;;;;;;4982271;28;20218;-24
2021/12/28 12:37:00;;;;;;;26.23;6.00;;;13.00;99.90;;;;;;4971546;28;20302;-24
2021/12/28 12:39:38;;;;;;;27.67;5.50;;;13.00;99.90;;;;;;4978351;28;20197;-24
2021/12/28 12:42:10;;;;;;;29.57;5.53;;;13.00;99.90;;;;;;4978325;28;20194;-24
2021/12/28 12:44:40;;;;;;;23.67;5.10;;;13.10;99.90;;;;;;4971537;28;20282;-24
2021/12/28 12:47:08;;;;;;;21.60;5.00;;;13.10;99.90;;;;;;4974345;28;20756;-24
2021/12/28 12:49:37;;;;;;;23.77;5.00;;;13.00;99.90;;;;;;4971121;28;20217;-24
2021/12/28 12:52:10;;;;;;;22.20;4.60;;;13.00;99.90;;;;;;4970681;28;20235;-24
2021/12/28 12:54:47;;;;;;;19.70;4.90;;;13.00;99.90;;;;;;4969722;28;20214;-24
2021/12/28 12:57:24;;;;;;;21.93;4.50;;;13.00;99.90;;;;;;4976256;28;20217;-24
2021/12/28 13:00:15;;;;;;;21.23;4.83;;;13.00;99.90;;;;;;4989392;28;20565;-24
2021/12/28 13:02:43;;;;;;;19.37;4.90;;;12.90;99.90;;;;;;4972290;28;20701;-24
2021/12/28 13:05:23;;;;;;;19.40;3.50;;;12.90;99.90;;;;;;4970410;28;20229;-24